Time;durP1;ratioP1;P1;durP2;ratioP2;P2;SDS_P1;SDS_P2;PMS_P1;PMS_P2;Temp;Humidity;BMP_temperature;BMP_pressure;BME280_temperature;BME280_humidity;BME280_pressure;Samples;Min_cycle;Max_cycle;Signal;HPM_P1;HPM_P2
2022/08/13 00:02:18;;;;;;;2.80;2.15;;;15.80;99.00;;;;;;4946609;28;20053;-72
2022/08/13 00:04:59;;;;;;;2.72;1.98;;;15.80;99.30;;;;;;4974213;28;20039;-72
2022/08/13 00:07:32;;;;;;;2.55;1.98;;;15.80;99.60;;;;;;4985524;28;20098;-72
2022/08/13 00:09:59;;;;;;;3.97;1.95;;;15.80;99.90;;;;;;4978177;28;20038;-72
2022/08/13 00:15:35;;;;;;;3.80;2.15;;;15.80;99.90;;;;;;4974169;28;20516;-72
2022/08/13 00:18:11;;;;;;;4.00;2.00;;;15.70;99.90;;;;;;4999194;28;20462;-72
2022/08/13 00:20:50;;;;;;;2.25;2.00;;;15.80;99.90;;;;;;4962396;28;20049;-72
2022/08/13 00:23:19;;;;;;;3.83;2.35;;;15.80;99.90;;;;;;4993124;28;20043;-73
2022/08/13 00:25:54;;;;;;;3.05;2.20;;;15.80;99.90;;;;;;4991922;28;20063;-71
2022/08/13 00:28:28;;;;;;;2.75;2.20;;;15.70;99.90;;;;;;4979716;28;20048;-72
2022/08/13 00:31:00;;;;;;;2.80;1.95;;;15.70;99.90;;;;;;4998478;28;20046;-73
2022/08/13 00:33:33;;;;;;;2.47;1.80;;;15.70;99.90;;;;;;4993849;28;20057;-73
2022/08/13 00:36:06;;;;;;;3.05;2.22;;;15.70;99.90;;;;;;4974090;28;20505;-72
2022/08/13 00:38:38;;;;;;;3.30;2.10;;;15.70;99.90;;;;;;4979250;28;20046;-71
2022/08/13 00:41:37;;;;;;;4.78;2.13;;;15.70;99.90;;;;;;5013801;28;20038;-71
2022/08/13 00:44:04;;;;;;;3.53;2.00;;;15.60;99.90;;;;;;4975162;28;20527;-72
2022/08/13 00:46:38;;;;;;;3.22;2.10;;;15.60;99.90;;;;;;4980587;28;20035;-71
2022/08/13 00:49:12;;;;;;;2.30;2.10;;;15.60;99.90;;;;;;5010773;28;20500;-72
2022/08/13 00:51:44;;;;;;;4.25;2.50;;;15.60;99.90;;;;;;4993499;28;20042;-72
2022/08/13 00:54:17;;;;;;;2.50;2.25;;;15.60;99.90;;;;;;4954424;28;20046;-72
2022/08/13 00:56:52;;;;;;;2.22;2.03;;;15.50;99.90;;;;;;4983950;28;20077;-72
2022/08/13 00:59:25;;;;;;;2.17;1.88;;;15.60;99.90;;;;;;4993410;28;20066;-73
2022/08/13 01:01:57;;;;;;;3.67;2.50;;;15.60;99.90;;;;;;4975877;28;20038;-72
2022/08/13 01:04:29;;;;;;;3.63;2.47;;;15.60;99.90;;;;;;4973899;28;20034;-72
2022/08/13 01:07:04;;;;;;;2.33;2.13;;;15.50;99.90;;;;;;4989169;28;20045;-72
2022/08/13 01:09:37;;;;;;;2.22;2.03;;;15.50;99.90;;;;;;4992742;28;20088;-72
2022/08/13 01:12:09;;;;;;;3.22;2.40;;;15.40;99.90;;;;;;4981071;28;20515;-73
2022/08/13 01:14:42;;;;;;;2.40;2.20;;;15.40;99.90;;;;;;4975656;28;20045;-72
2022/08/13 01:17:15;;;;;;;4.60;2.63;;;15.30;99.90;;;;;;4978042;28;20038;-72
2022/08/13 01:19:49;;;;;;;2.33;2.13;;;15.20;99.90;;;;;;4991338;28;20042;-72
2022/08/13 01:22:23;;;;;;;3.17;2.20;;;15.20;99.90;;;;;;4959603;28;20577;-72
2022/08/13 01:24:55;;;;;;;2.53;2.33;;;15.10;99.90;;;;;;4958000;28;20042;-72
2022/08/13 01:27:27;;;;;;;2.65;2.45;;;15.00;99.90;;;;;;4990426;28;20034;-71
2022/08/13 01:30:01;;;;;;;6.18;2.58;;;14.90;99.90;;;;;;4984854;28;20050;-72
2022/08/13 01:32:37;;;;;;;4.10;2.72;;;14.90;99.90;;;;;;4960386;28;20050;-72
2022/08/13 01:35:09;;;;;;;3.15;2.67;;;14.80;99.90;;;;;;4989542;28;20050;-72
2022/08/13 01:37:41;;;;;;;5.25;3.50;;;14.80;99.90;;;;;;4982471;28;20043;-73
2022/08/13 01:40:13;;;;;;;3.37;3.07;;;14.70;99.90;;;;;;4971905;28;20070;-72
2022/08/13 01:42:46;;;;;;;4.90;3.80;;;14.60;99.90;;;;;;4957454;28;20051;-73
2022/08/13 01:45:18;;;;;;;;;;;14.50;99.90;;;;;;4977780;28;20509;-72
2022/08/13 01:50:41;;;;;;;4.10;3.70;;;14.40;99.90;;;;;;4973163;28;20412;-71
2022/08/13 01:53:16;;;;;;;3.65;3.33;;;14.40;99.90;;;;;;4979074;28;20038;-72
2022/08/13 01:55:55;;;;;;;3.88;3.55;;;14.40;99.90;;;;;;4985256;28;20050;-72
2022/08/13 01:58:29;;;;;;;3.92;3.55;;;14.40;99.90;;;;;;4978480;28;20060;-72
2022/08/13 02:01:02;;;;;;;;;;;14.30;99.90;;;;;;4972412;28;20062;-72
2022/08/13 02:03:34;;;;;;;3.90;3.40;;;14.20;99.90;;;;;;4957119;28;19964;-72
2022/08/13 02:06:06;;;;;;;5.85;3.50;;;14.20;99.90;;;;;;4968266;28;20122;-72
2022/08/13 02:08:40;;;;;;;3.50;3.20;;;14.20;99.90;;;;;;5004743;28;20038;-71
2022/08/13 02:11:11;;;;;;;3.45;3.15;;;14.20;99.90;;;;;;4971509;28;20046;-71
2022/08/13 02:13:44;;;;;;;4.80;3.22;;;14.20;99.90;;;;;;4983109;28;20401;-73
2022/08/13 02:16:11;;;;;;;4.45;3.10;;;14.20;99.90;;;;;;4977388;28;20053;-71
2022/08/13 02:18:43;;;;;;;3.50;3.20;;;14.20;99.90;;;;;;4996639;28;20038;-72
2022/08/13 02:21:17;;;;;;;3.87;3.53;;;14.20;99.90;;;;;;4979094;28;20054;-71
2022/08/13 02:23:57;;;;;;;5.55;3.22;;;14.20;99.90;;;;;;4965509;28;20296;-72
2022/08/13 02:26:32;;;;;;;2.95;2.75;;;14.20;99.90;;;;;;4985514;28;20042;-72
2022/08/13 02:29:05;;;;;;;2.88;2.65;;;14.20;99.90;;;;;;4994387;28;20041;-71
2022/08/13 02:31:37;;;;;;;3.30;3.00;;;14.20;99.90;;;;;;4976266;28;20049;-72
2022/08/13 02:34:11;;;;;;;3.70;2.85;;;14.10;99.90;;;;;;4965074;28;20043;-72
2022/08/13 02:36:42;;;;;;;;;;;14.10;99.90;;;;;;4971315;28;20043;-72
2022/08/13 02:39:14;;;;;;;3.13;2.83;;;14.00;99.90;;;;;;4995737;28;19921;-71
2022/08/13 02:41:47;;;;;;;4.53;3.05;;;14.00;99.90;;;;;;4957728;28;20050;-72
2022/08/13 02:44:16;;;;;;;5.10;2.60;;;13.90;99.90;;;;;;4974759;28;20042;-72
2022/08/13 02:46:49;;;;;;;4.75;2.80;;;13.80;99.90;;;;;;4990418;28;20584;-72
2022/08/13 02:49:21;;;;;;;4.75;2.92;;;13.90;99.90;;;;;;4995106;28;20051;-72
2022/08/13 02:51:53;;;;;;;6.57;3.03;;;13.90;99.90;;;;;;4982490;28;20046;-72
2022/08/13 02:54:20;;;;;;;5.97;2.90;;;13.90;99.90;;;;;;4971117;28;20512;-71
2022/08/13 02:56:52;;;;;;;6.10;2.80;;;13.90;99.90;;;;;;4967178;28;20053;-72
2022/08/13 02:59:24;;;;;;;8.30;3.17;;;13.90;99.90;;;;;;4986557;28;20045;-72
2022/08/13 03:01:56;;;;;;;5.45;2.95;;;13.80;99.90;;;;;;4970645;28;20039;-72
2022/08/13 03:04:28;;;;;;;6.72;2.97;;;13.90;99.90;;;;;;4970188;28;20035;-72
2022/08/13 03:07:00;;;;;;;6.80;2.83;;;13.80;99.90;;;;;;4987942;28;20042;-72
2022/08/13 03:09:32;;;;;;;5.15;2.72;;;13.80;99.90;;;;;;4976504;28;20070;-72
2022/08/13 03:12:06;;;;;;;7.40;2.80;;;13.80;99.90;;;;;;4991785;28;20136;-73
2022/08/13 03:14:39;;;;;;;3.63;2.72;;;13.80;99.90;;;;;;4968188;28;20085;-73
2022/08/13 03:17:11;;;;;;;4.93;2.92;;;13.90;99.90;;;;;;4948868;28;20121;-72
2022/08/13 03:19:43;;;;;;;6.68;3.10;;;13.90;99.90;;;;;;4988428;28;20129;-72
2022/08/13 03:22:14;;;;;;;3.53;2.85;;;14.00;99.90;;;;;;4992213;28;20042;-73
2022/08/13 03:24:47;;;;;;;4.00;2.70;;;14.00;99.90;;;;;;4991859;28;20039;-72
2022/08/13 03:27:18;;;;;;;3.63;2.63;;;14.00;99.90;;;;;;4989983;28;20085;-71
2022/08/13 03:29:53;;;;;;;4.93;3.67;;;14.00;99.90;;;;;;4978370;28;20058;-72
2022/08/13 03:32:25;;;;;;;4.35;3.13;;;13.90;99.90;;;;;;4977836;28;20055;-71
2022/08/13 03:34:57;;;;;;;4.37;2.80;;;14.00;99.90;;;;;;4974937;28;20138;-72
2022/08/13 03:37:29;;;;;;;4.43;3.33;;;14.00;99.90;;;;;;4980706;28;20390;-71
2022/08/13 03:40:02;;;;;;;8.25;5.32;;;13.90;99.90;;;;;;4963166;28;20047;-72
2022/08/13 03:42:35;;;;;;;10.95;5.72;;;13.90;99.90;;;;;;4978806;28;20042;-73
2022/08/13 03:45:08;;;;;;;8.13;4.70;;;13.80;99.90;;;;;;4977472;28;20034;-72
2022/08/13 03:47:40;;;;;;;6.30;5.15;;;13.70;99.90;;;;;;4983516;28;20044;-73
2022/08/13 03:50:15;;;;;;;10.15;5.10;;;13.70;99.90;;;;;;5021007;23;20053;31
2022/08/13 03:52:47;;;;;;;5.35;4.85;;;13.50;99.90;;;;;;4980690;28;20050;-72
2022/08/13 03:55:19;;;;;;;9.70;4.57;;;13.40;99.90;;;;;;4954122;28;20121;-72
2022/08/13 03:57:51;;;;;;;6.78;4.53;;;13.30;99.90;;;;;;4975555;28;20080;-72
2022/08/13 04:00:28;;;;;;;6.55;4.45;;;13.20;99.90;;;;;;4977486;28;20049;-72
2022/08/13 04:02:56;;;;;;;6.22;4.28;;;13.20;99.90;;;;;;4977232;28;20137;-72
2022/08/13 04:05:29;;;;;;;7.50;4.88;;;13.20;99.90;;;;;;4981827;28;20078;-73
2022/08/13 04:08:01;;;;;;;12.15;5.50;;;13.10;99.90;;;;;;4958203;28;20137;-72
2022/08/13 04:10:33;;;;;;;8.90;5.30;;;13.20;99.90;;;;;;4985521;28;20061;-72
2022/08/13 04:13:11;;;;;;;9.18;5.03;;;13.20;99.90;;;;;;4978069;28;20055;-72
2022/08/13 04:15:44;;;;;;;5.57;4.18;;;13.20;99.90;;;;;;4974528;28;20053;-72
2022/08/13 04:18:16;;;;;;;5.60;3.85;;;13.20;99.90;;;;;;4982558;28;20129;-72
2022/08/13 04:20:52;;;;;;;5.45;4.47;;;13.10;99.90;;;;;;4957905;28;20082;-72
2022/08/13 04:23:24;;;;;;;6.45;3.42;;;13.10;99.90;;;;;;4977832;28;20073;-72
2022/08/13 04:25:56;;;;;;;6.40;3.67;;;13.10;99.90;;;;;;4992201;28;20093;-72
2022/08/13 04:28:27;;;;;;;8.75;5.35;;;13.00;99.90;;;;;;4976212;28;20042;-72
2022/08/13 04:31:00;;;;;;;5.43;3.65;;;13.00;99.90;;;;;;4976763;28;20061;-74
2022/08/13 04:33:34;;;;;;;4.30;3.88;;;12.90;99.90;;;;;;5004744;28;20047;-72
2022/08/13 04:36:07;;;;;;;6.38;3.80;;;12.80;99.90;;;;;;5012421;28;20664;-73
2022/08/13 04:38:39;;;;;;;5.35;3.63;;;12.90;99.90;;;;;;4995817;28;20104;-72
2022/08/13 04:41:10;;;;;;;4.88;3.50;;;12.90;99.90;;;;;;4987713;28;20065;-72
2022/08/13 04:43:42;;;;;;;10.43;4.18;;;12.90;99.90;;;;;;4993447;28;20082;-71
2022/08/13 04:46:14;;;;;;;18.67;7.85;;;13.00;99.90;;;;;;4963452;28;20051;-72
2022/08/13 04:48:46;;;;;;;13.48;6.75;;;13.00;99.90;;;;;;4977285;28;20039;-71
2022/08/13 04:51:18;;;;;;;15.65;6.82;;;13.00;99.90;;;;;;4977802;28;20130;-72
2022/08/13 04:53:49;;;;;;;7.57;5.75;;;13.10;99.90;;;;;;4973614;28;20054;-70
2022/08/13 04:56:21;;;;;;;10.65;4.88;;;13.10;99.90;;;;;;4980331;28;20104;-71
2022/08/13 04:58:53;;;;;;;11.80;6.20;;;13.00;99.90;;;;;;4960553;28;20518;-72
2022/08/13 05:01:21;;;;;;;8.10;4.63;;;13.10;99.90;;;;;;4990159;28;20038;-71
2022/08/13 05:03:53;;;;;;;5.05;4.28;;;13.10;99.90;;;;;;4979175;28;20513;-70
2022/08/13 05:06:26;;;;;;;9.32;4.40;;;13.20;99.90;;;;;;4979361;28;20069;-70
2022/08/13 05:09:01;;;;;;;4.60;4.20;;;13.20;99.90;;;;;;5010246;28;20065;-70
2022/08/13 05:11:33;;;;;;;8.30;4.78;;;13.20;99.90;;;;;;4976691;28;20663;-70
2022/08/13 05:14:00;;;;;;;13.38;6.25;;;13.30;99.90;;;;;;4976606;28;20046;-70
2022/08/13 05:16:31;;;;;;;10.50;5.82;;;13.30;99.90;;;;;;4993898;28;20535;-70
2022/08/13 05:18:58;;;;;;;12.68;6.70;;;13.30;99.90;;;;;;4985971;28;20058;-70
2022/08/13 05:21:30;;;;;;;14.57;6.75;;;13.30;99.90;;;;;;4990151;28;20129;-74
2022/08/13 05:23:57;;;;;;;8.82;6.22;;;13.30;99.90;;;;;;4962542;28;20042;-73
2022/08/13 05:26:31;;;;;;;9.90;7.30;;;13.40;99.90;;;;;;4993417;28;20042;-72
2022/08/13 05:29:05;;;;;;;11.93;7.47;;;13.40;99.90;;;;;;4991747;28;20125;-70
2022/08/13 05:31:37;;;;;;;17.13;8.60;;;13.40;99.90;;;;;;4949301;28;20061;-70
2022/08/13 05:34:08;;;;;;;14.60;7.78;;;13.30;99.90;;;;;;4968415;28;20520;-70
2022/08/13 05:36:42;;;;;;;10.35;6.70;;;13.30;99.90;;;;;;4989448;28;20515;-72
2022/08/13 05:39:14;;;;;;;16.10;7.43;;;13.30;99.90;;;;;;4970135;28;20074;-70
2022/08/13 05:41:48;;;;;;;16.40;8.88;;;13.40;99.90;;;;;;4971860;28;20145;-70
2022/08/13 05:44:14;;;;;;;9.52;7.70;;;13.40;99.90;;;;;;4984787;28;20039;-70
2022/08/13 05:46:46;;;;;;;9.23;6.72;;;13.40;99.90;;;;;;4985186;28;20045;-70
2022/08/13 05:49:18;;;;;;;6.93;6.28;;;13.50;99.90;;;;;;4988926;28;20050;-70
2022/08/13 05:51:51;;;;;;;6.10;5.50;;;13.50;99.90;;;;;;4968312;28;20043;-71
2022/08/13 05:54:23;;;;;;;6.70;6.10;;;13.40;99.90;;;;;;4997062;28;20081;-70
2022/08/13 05:56:54;;;;;;;6.85;6.25;;;13.30;99.90;;;;;;4986403;28;20074;-70
2022/08/13 06:05:07;;;;;;;6.13;5.63;;;13.40;99.90;;;;;;4980367;28;20053;-71
2022/08/13 06:07:40;;;;;;;7.03;6.43;;;13.50;99.90;;;;;;4970570;28;20034;-70
2022/08/13 06:10:14;;;;;;;8.13;6.30;;;13.40;99.90;;;;;;4962202;28;20046;-70
2022/08/13 06:12:47;;;;;;;6.90;6.03;;;13.50;99.90;;;;;;4966414;28;20304;-70
2022/08/13 06:15:21;;;;;;;8.90;6.03;;;13.50;99.90;;;;;;4989736;28;20066;-71
2022/08/13 06:17:53;;;;;;;6.40;5.82;;;13.60;99.90;;;;;;4984972;28;20034;-70
2022/08/13 06:20:26;;;;;;;7.00;5.93;;;13.60;99.90;;;;;;4982523;28;20182;-72
2022/08/13 06:22:59;;;;;;;7.78;6.35;;;13.70;99.90;;;;;;4983286;28;20400;-71
2022/08/13 06:25:32;;;;;;;7.20;6.40;;;13.80;99.90;;;;;;4965353;28;20490;-70
2022/08/13 06:28:10;;;;;;;6.85;6.20;;;13.90;99.90;;;;;;4977614;28;20057;-70
2022/08/13 06:30:43;;;;;;;7.50;6.43;;;14.00;99.90;;;;;;4965827;28;20049;-70
2022/08/13 06:33:20;;;;;;;7.90;5.90;;;14.10;99.90;;;;;;4984621;28;20050;-70
2022/08/13 06:35:55;;;;;;;6.82;5.97;;;14.20;99.90;;;;;;4981528;28;20429;-70
2022/08/13 06:38:28;;;;;;;6.30;5.70;;;14.20;99.90;;;;;;4984894;28;20066;-70
2022/08/13 06:40:59;;;;;;;7.97;6.10;;;14.40;99.90;;;;;;4971844;28;20062;-70
2022/08/13 06:43:39;;;;;;;6.88;6.38;;;14.50;99.90;;;;;;4967219;28;20048;-70
2022/08/13 06:46:12;;;;;;;6.93;6.25;;;14.60;99.90;;;;;;4966642;28;20428;-71
2022/08/13 06:48:39;;;;;;;7.63;6.32;;;14.80;99.90;;;;;;4958419;28;20050;-70
2022/08/13 06:51:12;;;;;;;7.22;6.20;;;14.90;99.90;;;;;;4987343;28;20042;-70
2022/08/13 06:53:45;;;;;;;6.93;5.72;;;15.00;99.90;;;;;;4996163;28;20194;-70
2022/08/13 06:56:19;;;;;;;7.13;5.90;;;15.20;99.90;;;;;;4984499;28;20046;-69
2022/08/13 06:58:53;;;;;;;6.82;6.07;;;15.30;99.90;;;;;;4969373;28;20050;-69
2022/08/13 07:01:27;;;;;;;6.40;5.80;;;15.40;99.90;;;;;;4984174;28;20043;-70
2022/08/13 07:03:59;;;;;;;5.75;5.25;;;15.60;99.90;;;;;;4994765;28;20042;-70
2022/08/13 07:06:30;;;;;;;7.35;6.38;;;15.70;99.90;;;;;;4975721;28;20045;-72
2022/08/13 07:09:02;;;;;;;6.88;6.13;;;15.80;99.90;;;;;;4980564;28;20042;-70
2022/08/13 07:11:35;;;;;;;7.60;6.07;;;15.90;99.90;;;;;;4979959;28;20117;-70
2022/08/13 07:14:02;;;;;;;6.85;6.13;;;16.00;99.90;;;;;;4983078;28;20055;-70
2022/08/13 07:16:34;;;;;;;7.28;6.57;;;16.10;99.90;;;;;;4972299;28;20042;-70
2022/08/13 07:19:03;;;;;;;9.25;6.50;;;16.20;99.90;;;;;;4973812;28;20050;-70
2022/08/13 07:21:35;;;;;;;6.43;5.82;;;16.30;99.90;;;;;;4962902;28;20043;-71
2022/08/13 07:24:11;;;;;;;6.78;6.18;;;16.40;99.90;;;;;;4977527;28;20121;-72
2022/08/13 07:26:43;;;;;;;6.72;6.07;;;16.50;99.90;;;;;;4974194;28;20130;-70
2022/08/13 07:29:18;;;;;;;5.93;5.40;;;16.60;99.90;;;;;;4982493;28;20047;-70
2022/08/13 07:31:49;;;;;;;6.70;6.10;;;16.70;99.90;;;;;;4980525;28;20054;-70
2022/08/13 07:34:16;;;;;;;4.03;3.58;;;16.80;99.90;;;;;;4986707;28;20558;-71
2022/08/13 07:36:43;;;;;;;8.75;6.00;;;17.00;99.90;;;;;;4970177;28;20038;-70
2022/08/13 07:39:16;;;;;;;9.57;7.00;;;17.30;99.90;;;;;;4971710;28;20050;-72
2022/08/13 07:41:46;;;;;;;7.82;5.85;;;17.60;99.90;;;;;;4989485;28;20045;-71
2022/08/13 07:44:22;;;;;;;7.30;5.43;;;17.70;99.90;;;;;;4979494;28;20043;-71
2022/08/13 07:46:53;;;;;;;6.63;5.75;;;17.80;99.90;;;;;;4968172;28;20595;-71
2022/08/13 07:49:26;;;;;;;6.43;5.82;;;17.90;99.90;;;;;;4984809;28;20050;-70
2022/08/13 07:51:58;;;;;;;6.78;6.18;;;17.80;99.90;;;;;;4964325;28;20087;-70
2022/08/13 07:54:31;;;;;;;6.70;6.00;;;17.90;99.90;;;;;;4995669;28;20042;-71
2022/08/13 07:57:03;;;;;;;6.30;5.70;;;17.90;99.90;;;;;;4990869;28;20061;-71
2022/08/13 07:59:29;;;;;;;6.28;5.68;;;17.90;99.90;;;;;;4988116;28;20034;-70
2022/08/13 08:02:01;;;;;;;8.43;5.80;;;18.00;99.90;;;;;;4965025;28;20042;-70
2022/08/13 08:04:35;;;;;;;5.70;5.18;;;18.10;99.90;;;;;;4987867;28;20039;-71
2022/08/13 08:07:09;;;;;;;5.53;5.03;;;18.20;99.90;;;;;;4983561;28;20433;-70
2022/08/13 08:09:41;;;;;;;8.15;4.90;;;18.30;99.90;;;;;;4962112;28;20061;-70
2022/08/13 08:12:32;;;;;;;4.55;4.13;;;18.50;99.90;;;;;;4973123;28;20527;-71
2022/08/13 08:15:08;;;;;;;6.00;4.60;;;18.60;99.90;;;;;;4986073;28;20129;-70
2022/08/13 08:17:35;;;;;;;4.85;4.35;;;18.70;99.90;;;;;;4994567;28;20046;-71
2022/08/13 08:20:08;;;;;;;5.22;4.30;;;18.70;99.90;;;;;;4994257;28;20077;-70
2022/08/13 08:22:44;;;;;;;4.13;3.72;;;18.80;99.90;;;;;;4975044;28;20500;-71
2022/08/13 08:25:21;;;;;;;4.35;3.90;;;19.00;99.90;;;;;;4985482;28;20070;-72
2022/08/13 08:27:53;;;;;;;3.70;3.38;;;19.10;99.90;;;;;;4982489;28;20045;-70
2022/08/13 08:30:25;;;;;;;4.88;4.07;;;19.30;99.90;;;;;;4988486;28;20043;-70
2022/08/13 08:32:57;;;;;;;4.32;3.78;;;19.40;99.90;;;;;;4981117;28;20065;-70
2022/08/13 08:35:30;;;;;;;5.65;3.60;;;19.60;99.90;;;;;;4996168;28;20069;-70
2022/08/13 08:43:44;;;;;;;3.30;3.00;;;20.10;99.90;;;;;;4957763;28;20046;-70
2022/08/13 08:46:17;;;;;;;4.35;3.10;;;20.20;99.90;;;;;;4969670;28;20449;-71
2022/08/13 08:48:49;;;;;;;5.43;3.10;;;20.30;99.90;;;;;;4991114;28;20040;-71
2022/08/13 08:51:20;;;;;;;3.30;2.88;;;20.50;99.90;;;;;;4958268;28;20058;-72
2022/08/13 08:53:52;;;;;;;5.63;2.75;;;20.70;99.90;;;;;;4979136;28;20687;-70
2022/08/13 08:56:24;;;;;;;3.58;2.47;;;20.80;99.90;;;;;;4994215;28;20195;-71
2022/08/13 08:58:58;;;;;;;4.20;2.70;;;21.10;99.90;;;;;;4976074;28;20042;-70
2022/08/13 09:01:25;;;;;;;5.20;2.30;;;21.20;99.90;;;;;;4969240;28;20516;-71
2022/08/13 09:03:58;;;;;;;3.85;2.40;;;21.40;99.90;;;;;;4983268;28;21738;-71
2022/08/13 09:06:31;;;;;;;5.05;2.80;;;21.50;99.90;;;;;;4990641;28;20520;-71
2022/08/13 09:09:01;;;;;;;2.75;2.50;;;21.60;99.90;;;;;;4999873;28;20038;-71
2022/08/13 09:11:35;;;;;;;3.53;2.58;;;21.70;99.90;;;;;;4958943;28;20042;-70
2022/08/13 09:14:08;;;;;;;2.90;2.70;;;21.80;99.60;;;;;;4978418;28;20050;-71
2022/08/13 09:16:40;;;;;;;2.63;2.40;;;22.00;99.20;;;;;;4981045;28;20512;-72
2022/08/13 09:19:09;;;;;;;4.63;2.60;;;22.10;99.00;;;;;;4978535;28;20125;-71
2022/08/13 09:21:45;;;;;;;2.63;2.40;;;22.20;97.80;;;;;;4984606;28;20039;-71
2022/08/13 09:24:24;;;;;;;3.15;2.60;;;22.30;97.90;;;;;;4982223;28;20130;-71
2022/08/13 09:26:56;;;;;;;5.65;2.80;;;22.40;96.90;;;;;;4974209;28;20042;-70
2022/08/13 09:29:24;;;;;;;6.10;2.50;;;22.50;97.10;;;;;;4994298;28;20806;-70
2022/08/13 09:31:58;;;;;;;5.13;2.17;;;22.70;96.50;;;;;;4991228;28;20043;-71
2022/08/13 09:34:30;;;;;;;4.35;2.10;;;22.90;95.90;;;;;;4993795;28;20135;-70
2022/08/13 09:37:02;;;;;;;4.88;2.42;;;23.10;95.50;;;;;;4974062;28;20053;-68
2022/08/13 09:39:42;;;;;;;3.63;2.75;;;23.20;94.30;;;;;;4982728;28;20042;-68
2022/08/13 09:42:23;;;;;;;4.15;2.40;;;23.40;95.00;;;;;;4970397;28;20090;-68
2022/08/13 09:44:58;;;;;;;3.38;2.40;;;23.50;94.40;;;;;;4990156;28;20041;-68
2022/08/13 09:47:31;;;;;;;4.57;2.15;;;23.70;93.10;;;;;;4983659;28;20046;-69
2022/08/13 09:50:04;;;;;;;2.42;2.20;;;23.70;92.60;;;;;;4981250;28;20054;-69
2022/08/13 09:52:37;;;;;;;4.00;1.98;;;24.00;92.80;;;;;;4971233;28;20122;-69
2022/08/13 09:55:08;;;;;;;;;;;24.10;91.70;;;;;;5004159;23;20014;-72
2022/08/13 09:57:59;;;;;;;4.22;2.00;;;24.20;91.00;;;;;;5013287;28;19931;-72
2022/08/13 10:00:33;;;;;;;3.92;2.50;;;24.30;91.40;;;;;;5007112;28;20084;-72
2022/08/13 10:03:06;;;;;;;3.83;2.00;;;24.30;91.40;;;;;;5011337;28;20030;-72
2022/08/13 10:05:38;;;;;;;3.75;2.20;;;24.50;88.70;;;;;;5008788;28;20038;-72
2022/08/13 10:08:16;;;;;;;2.97;2.40;;;24.60;90.10;;;;;;5028794;28;20029;-72
2022/08/13 10:10:48;;;;;;;3.15;2.13;;;24.70;90.20;;;;;;5004571;28;20070;-72
2022/08/13 10:13:19;;;;;;;3.10;2.17;;;24.80;88.90;;;;;;5029281;28;20047;-72
2022/08/13 10:15:51;;;;;;;2.33;2.08;;;24.90;87.30;;;;;;5007326;28;20145;-72
2022/08/13 10:18:28;;;;;;;5.72;2.90;;;25.00;86.00;;;;;;5009960;28;20072;-72
2022/08/13 10:21:00;;;;;;;3.58;2.03;;;25.10;83.40;;;;;;5016232;28;20056;-72
2022/08/13 10:23:32;;;;;;;2.47;2.00;;;25.20;82.60;;;;;;5014698;28;20416;-73
2022/08/13 10:26:04;;;;;;;4.65;1.80;;;25.30;82.60;;;;;;4998603;28;20128;-71
2022/08/13 10:28:36;;;;;;;2.75;1.98;;;25.40;82.30;;;;;;5030294;28;20511;-72
2022/08/13 10:31:09;;;;;;;3.90;1.98;;;25.60;80.90;;;;;;5004866;28;20038;-72
2022/08/13 10:33:40;;;;;;;2.63;2.10;;;25.60;80.00;;;;;;5010029;28;20149;-72
2022/08/13 10:36:14;;;;;;;3.17;2.35;;;25.70;78.50;;;;;;5019619;28;20045;-71
2022/08/13 10:38:46;;;;;;;2.38;1.95;;;25.80;79.70;;;;;;5025419;28;20072;-71
2022/08/13 10:41:18;;;;;;;2.22;1.83;;;25.90;77.50;;;;;;5011159;28;20045;-71
2022/08/13 10:43:53;;;;;;;2.33;1.90;;;26.00;72.70;;;;;;5023253;28;20063;-72
2022/08/13 10:46:25;;;;;;;4.72;1.63;;;26.00;75.60;;;;;;5009472;28;20401;-71
2022/08/13 10:48:58;;;;;;;2.00;1.77;;;26.10;73.10;;;;;;5027539;28;20047;-71
2022/08/13 10:51:30;;;;;;;1.83;1.73;;;26.20;73.70;;;;;;4997949;28;20388;-71
2022/08/13 10:54:02;;;;;;;2.10;1.60;;;26.30;73.50;;;;;;5023962;28;20426;-71
2022/08/13 10:56:34;;;;;;;2.07;1.80;;;26.40;72.00;;;;;;5019234;28;20048;-71
2022/08/13 10:59:06;;;;;;;3.63;2.20;;;26.30;70.90;;;;;;5006640;28;20080;-72
2022/08/13 11:01:39;;;;;;;3.90;2.10;;;26.20;71.90;;;;;;5025304;28;20046;-71
2022/08/13 11:04:11;;;;;;;5.03;1.80;;;26.30;72.80;;;;;;5011512;28;20037;-72
2022/08/13 11:06:45;;;;;;;2.33;1.92;;;26.50;72.80;;;;;;5008854;28;20078;-72
2022/08/13 11:09:18;;;;;;;2.60;1.83;;;26.50;72.20;;;;;;5011803;28;20041;-72
2022/08/13 11:11:49;;;;;;;2.63;2.38;;;26.30;71.90;;;;;;5025106;28;20068;-71
2022/08/13 11:14:22;;;;;;;4.35;2.28;;;26.30;71.00;;;;;;5021995;28;20044;-71
2022/08/13 11:16:57;;;;;;;2.20;2.00;;;26.40;73.20;;;;;;5027059;28;20052;-72
2022/08/13 11:19:29;;;;;;;3.97;2.08;;;26.40;72.60;;;;;;5032751;28;20069;-72
2022/08/13 11:22:01;;;;;;;2.97;2.20;;;26.30;71.80;;;;;;5029493;28;20088;-72
2022/08/13 11:24:33;;;;;;;3.67;2.28;;;26.10;72.20;;;;;;5023467;28;20041;-71
2022/08/13 11:27:05;;;;;;;3.42;2.00;;;25.90;71.20;;;;;;5025136;28;20056;-71
2022/08/13 11:29:37;;;;;;;3.17;2.90;;;25.70;72.00;;;;;;5023730;28;20357;-71
2022/08/13 11:32:09;;;;;;;3.50;2.40;;;25.50;72.40;;;;;;5027918;28;20292;-71
2022/08/13 11:34:40;;;;;;;4.35;2.35;;;25.50;73.90;;;;;;5012108;28;20041;-71
2022/08/13 11:37:12;;;;;;;6.00;2.70;;;25.50;72.50;;;;;;5026484;28;20037;-71
2022/08/13 11:39:44;;;;;;;3.42;3.03;;;25.60;73.70;;;;;;5005623;28;20052;-71
2022/08/13 11:42:16;;;;;;;3.97;2.72;;;25.60;70.80;;;;;;5024567;28;20052;-71
2022/08/13 11:44:47;;;;;;;2.25;2.05;;;25.60;71.50;;;;;;5008591;28;20050;-71
2022/08/13 11:47:19;;;;;;;3.65;2.50;;;25.80;72.60;;;;;;5008839;28;20037;-72
2022/08/13 11:49:51;;;;;;;2.38;2.17;;;25.90;69.90;;;;;;5015698;28;20041;-71
2022/08/13 11:52:23;;;;;;;2.75;2.47;;;26.00;71.70;;;;;;5020517;28;20121;-72
2022/08/13 11:54:55;;;;;;;3.67;2.10;;;26.10;69.70;;;;;;5018825;28;20133;-72
2022/08/13 11:57:26;;;;;;;2.67;1.92;;;26.20;69.70;;;;;;5024222;28;20124;-72
2022/08/13 11:59:58;;;;;;;3.50;1.85;;;26.50;66.80;;;;;;5029184;28;20038;-71
2022/08/13 12:02:25;;;;;;;4.57;2.15;;;26.70;66.90;;;;;;5008432;28;20030;-71
2022/08/13 12:04:57;;;;;;;3.40;2.57;;;26.90;68.80;;;;;;5022902;28;20396;-72
2022/08/13 12:07:29;;;;;;;3.93;2.20;;;27.00;67.60;;;;;;5013463;28;20041;-71
2022/08/13 12:10:01;;;;;;;3.17;2.65;;;26.90;67.80;;;;;;5007602;28;20280;-72
2022/08/13 12:12:33;;;;;;;3.40;2.40;;;26.80;67.20;;;;;;5008496;28;20060;-72
2022/08/13 12:15:05;;;;;;;6.32;2.47;;;26.80;68.30;;;;;;5009775;28;20058;-72
2022/08/13 12:17:42;;;;;;;2.55;1.98;;;26.90;69.40;;;;;;5010440;28;20041;-71
2022/08/13 12:20:20;;;;;;;2.75;2.33;;;27.00;69.20;;;;;;5018917;28;20048;-71
2022/08/13 12:22:54;;;;;;;3.45;2.30;;;27.20;67.30;;;;;;5026362;28;20042;-72
2022/08/13 12:25:28;;;;;;;3.47;2.33;;;27.40;67.90;;;;;;5006745;28;20407;-71
2022/08/13 12:28:25;;;;;;;3.75;2.15;;;27.60;65.80;;;;;;5028298;28;20040;-72
2022/08/13 12:31:00;;;;;;;3.25;1.65;;;27.70;66.30;;;;;;5026334;28;20049;-72
2022/08/13 12:33:32;;;;;;;3.13;2.28;;;27.80;63.30;;;;;;5006817;28;20049;-71
2022/08/13 12:36:05;;;;;;;3.63;2.20;;;27.90;63.30;;;;;;5016600;28;20046;-72
2022/08/13 12:38:37;;;;;;;1.92;1.83;;;28.00;61.30;;;;;;4996112;28;20064;-72
2022/08/13 12:41:04;;;;;;;3.05;2.30;;;27.80;60.90;;;;;;5028257;28;20543;-71
2022/08/13 12:43:36;;;;;;;1.98;1.88;;;27.70;61.90;;;;;;5023662;28;20044;-71
2022/08/13 12:46:10;;;;;;;3.80;2.20;;;27.50;63.40;;;;;;5020129;28;20075;-72
2022/08/13 12:48:41;;;;;;;3.45;2.22;;;27.40;62.60;;;;;;5007049;28;20050;-72
2022/08/13 12:51:13;;;;;;;2.00;1.70;;;27.30;63.00;;;;;;5028962;28;20068;-72
2022/08/13 12:53:45;;;;;;;2.53;2.17;;;27.30;62.70;;;;;;5025859;28;20046;-72
2022/08/13 12:56:17;;;;;;;5.40;3.13;;;27.20;63.60;;;;;;5006337;28;20541;-72
2022/08/13 12:58:49;;;;;;;5.65;2.42;;;27.10;63.70;;;;;;5024967;28;20048;-71
2022/08/13 13:01:20;;;;;;;4.07;2.38;;;26.90;64.50;;;;;;4998128;28;20397;-70
2022/08/13 13:03:52;;;;;;;3.53;2.13;;;26.90;64.00;;;;;;5023348;28;20070;-70
2022/08/13 13:06:24;;;;;;;3.45;2.00;;;27.00;64.40;;;;;;5007985;28;20415;-70
2022/08/13 13:08:56;;;;;;;6.38;2.30;;;27.30;64.70;;;;;;5008954;28;20116;-71
2022/08/13 13:11:27;;;;;;;2.33;1.83;;;27.60;63.20;;;;;;5017118;28;20026;-70
2022/08/13 13:13:59;;;;;;;3.28;2.28;;;27.90;61.80;;;;;;5004783;28;20049;-70
2022/08/13 13:16:32;;;;;;;4.38;1.70;;;28.20;62.00;;;;;;5009082;28;20544;-71
2022/08/13 13:19:05;;;;;;;;;;;28.40;60.70;;;;;;5026280;28;20129;-71
2022/08/13 13:21:38;;;;;;;;;;;28.40;60.60;;;;;;5025533;28;19931;-70
2022/08/13 13:24:13;;;;;;;7.68;5.38;;;28.60;60.80;;;;;;5005497;28;19921;-71
2022/08/13 13:26:47;;;;;;;4.28;3.88;;;28.60;60.50;;;;;;5004854;28;20553;-71
2022/08/13 13:29:18;;;;;;;3.38;2.50;;;28.30;60.40;;;;;;5004065;28;20049;-72
2022/08/13 13:31:50;;;;;;;2.70;2.30;;;28.10;61.10;;;;;;5011960;28;20036;-72
2022/08/13 13:34:23;;;;;;;5.07;2.53;;;28.00;59.20;;;;;;5014014;28;20665;-71